Time;durP1;ratioP1;P1;durP2;ratioP2;P2;SDS_P1;SDS_P2;PMS_P1;PMS_P2;Temp;Humidity;BMP_temperature;BMP_pressure;BME280_temperature;BME280_humidity;BME280_pressure;Samples;Min_cycle;Max_cycle;Signal;HPM_P1;HPM_P2
2024/03/29 00:00:07;;;;;;;3.50;0.70;;;10.80;99.90;;;;;;5023445;28;20039;-76
2024/03/29 00:02:32;;;;;;;3.58;0.60;;;10.70;99.90;;;;;;5024810;28;20553;-76
2024/03/29 00:04:58;;;;;;;3.88;1.00;;;10.70;99.90;;;;;;5024060;28;20048;-76
2024/03/29 00:07:24;;;;;;;3.83;0.80;;;10.70;99.90;;;;;;5024663;28;20386;-76
2024/03/29 00:09:49;;;;;;;5.00;0.75;;;10.70;99.90;;;;;;5023847;28;20467;-76
2024/03/29 00:12:15;;;;;;;5.18;0.90;;;10.70;99.90;;;;;;5024268;28;20469;-76
2024/03/29 00:14:43;;;;;;;3.70;1.00;;;10.60;99.90;;;;;;5023650;28;20026;-76
2024/03/29 00:17:09;;;;;;;3.17;0.82;;;10.60;99.90;;;;;;5024271;28;20112;-76
2024/03/29 00:19:35;;;;;;;2.65;0.70;;;10.70;99.90;;;;;;5023246;28;20250;-76
2024/03/29 00:22:01;;;;;;;2.35;0.85;;;10.60;99.90;;;;;;5023653;28;20169;-76
2024/03/29 00:24:27;;;;;;;2.60;0.88;;;10.50;99.90;;;;;;5023232;28;20025;-76
2024/03/29 00:26:53;;;;;;;4.13;0.57;;;10.70;99.90;;;;;;5024469;28;20168;-76
2024/03/29 00:29:18;;;;;;;3.22;0.75;;;10.50;99.90;;;;;;5023570;28;20093;-76
2024/03/29 00:31:45;;;;;;;2.97;1.05;;;10.60;99.90;;;;;;5023860;28;20063;-76
2024/03/29 00:34:11;;;;;;;2.63;0.73;;;10.50;99.90;;;;;;5023159;28;20030;-76
2024/03/29 00:36:37;;;;;;;4.10;1.08;;;10.50;99.90;;;;;;5023860;28;20018;-76
2024/03/29 00:39:03;;;;;;;5.28;1.15;;;10.40;99.90;;;;;;5024350;28;20026;-76
2024/03/29 00:41:28;;;;;;;6.20;1.10;;;10.40;99.90;;;;;;5023170;28;20398;-76
2024/03/29 00:43:54;;;;;;;3.00;0.95;;;10.40;99.90;;;;;;5024042;28;20156;-76
2024/03/29 00:46:19;;;;;;;2.78;0.57;;;10.40;99.90;;;;;;5023473;28;20441;-76
2024/03/29 00:48:47;;;;;;;5.68;1.30;;;10.40;99.90;;;;;;5020997;28;20763;-76
2024/03/29 00:51:12;;;;;;;2.40;0.70;;;10.30;99.90;;;;;;5023383;28;20113;-76
2024/03/29 00:53:39;;;;;;;2.45;0.90;;;10.40;99.90;;;;;;5022497;28;20092;-76
2024/03/29 00:56:04;;;;;;;2.83;0.63;;;10.30;99.90;;;;;;5025414;28;20497;-76
2024/03/29 00:58:30;;;;;;;3.42;1.02;;;10.30;99.90;;;;;;5026940;28;20034;-77
2024/03/29 01:00:56;;;;;;;4.60;0.80;;;10.30;99.90;;;;;;5025198;28;20037;-76
2024/03/29 01:03:21;;;;;;;4.07;0.88;;;10.30;99.90;;;;;;5026657;28;20429;-76
2024/03/29 01:05:47;;;;;;;4.38;0.93;;;10.40;99.90;;;;;;5027651;28;20425;-77
2024/03/29 01:08:13;;;;;;;4.80;1.33;;;10.40;99.90;;;;;;5025403;28;20517;-76
2024/03/29 01:10:38;;;;;;;2.63;1.00;;;10.40;99.90;;;;;;5025795;28;20144;-76
2024/03/29 01:13:04;;;;;;;3.92;0.93;;;10.50;99.90;;;;;;5026072;28;20390;-76
2024/03/29 01:15:29;;;;;;;1.13;0.50;;;10.60;99.90;;;;;;5025568;28;20471;-76
2024/03/29 01:17:55;;;;;;;2.95;1.15;;;10.50;99.90;;;;;;5026930;28;20533;-76
2024/03/29 01:20:21;;;;;;;3.88;1.45;;;10.50;99.90;;;;;;5027086;28;20037;-76
2024/03/29 01:22:46;;;;;;;5.88;1.00;;;10.60;99.90;;;;;;5024885;28;20030;-76
2024/03/29 01:25:14;;;;;;;5.25;0.82;;;10.50;99.90;;;;;;5027201;28;20418;-76
2024/03/29 01:27:40;;;;;;;3.90;0.93;;;10.50;99.90;;;;;;5026753;28;20021;-76
2024/03/29 01:30:06;;;;;;;2.90;0.88;;;10.50;99.90;;;;;;5027446;28;20021;-76
2024/03/29 01:32:31;;;;;;;5.75;1.00;;;10.50;99.90;;;;;;5025168;28;20100;-76
2024/03/29 01:34:57;;;;;;;4.90;0.75;;;10.50;99.90;;;;;;5026246;28;20096;-76
2024/03/29 01:37:23;;;;;;;3.88;1.23;;;10.50;99.90;;;;;;5026870;28;23002;-76
2024/03/29 01:39:48;;;;;;;2.75;1.00;;;10.60;99.90;;;;;;5026988;28;20528;-76
2024/03/29 01:42:14;;;;;;;2.42;0.70;;;10.60;99.90;;;;;;5026630;28;20479;-76
2024/03/29 01:44:40;;;;;;;5.13;1.08;;;10.60;99.90;;;;;;5026774;28;20083;-76
2024/03/29 01:47:06;;;;;;;2.22;1.00;;;10.60;99.90;;;;;;5026100;28;20044;-76
2024/03/29 01:49:32;;;;;;;3.72;0.80;;;10.60;99.90;;;;;;5027144;28;20414;-76
2024/03/29 01:51:57;;;;;;;3.00;0.60;;;10.50;99.90;;;;;;5025657;28;20021;-76
2024/03/29 01:54:23;;;;;;;5.00;0.80;;;10.50;99.90;;;;;;5027087;28;20714;-76
2024/03/29 01:56:49;;;;;;;3.10;0.95;;;10.60;99.90;;;;;;5025514;28;20099;-76
2024/03/29 01:59:17;;;;;;;2.42;0.80;;;10.60;99.90;;;;;;5026948;28;20441;-76
2024/03/29 02:01:43;;;;;;;3.95;0.82;;;10.60;99.90;;;;;;5025555;28;20030;-76
2024/03/29 02:04:09;;;;;;;3.67;0.57;;;10.70;99.90;;;;;;5026514;28;20124;-76
2024/03/29 02:06:37;;;;;;;5.35;1.00;;;10.60;99.90;;;;;;5025630;28;20033;-76
2024/03/29 02:09:03;;;;;;;2.13;0.55;;;10.70;99.90;;;;;;5026067;28;20048;-76
2024/03/29 02:11:29;;;;;;;3.55;0.80;;;10.60;99.90;;;;;;5024401;28;20482;-76
2024/03/29 02:13:56;;;;;;;1.73;0.60;;;10.70;99.90;;;;;;5025278;28;20018;-76
2024/03/29 02:16:22;;;;;;;3.67;0.50;;;10.70;99.90;;;;;;5025501;28;20033;-76
2024/03/29 02:18:48;;;;;;;2.88;0.60;;;10.70;99.90;;;;;;5024802;28;20048;-76
2024/03/29 02:21:13;;;;;;;2.28;0.90;;;10.70;99.90;;;;;;5025990;28;20545;-75
2024/03/29 02:23:44;;;;;;;5.95;1.08;;;10.70;99.90;;;;;;5025278;28;20036;-76
2024/03/29 02:26:11;;;;;;;2.95;0.60;;;10.70;99.90;;;;;;5025096;28;20367;-76
2024/03/29 02:28:36;;;;;;;5.70;0.70;;;10.70;99.90;;;;;;5024229;28;20052;-76
2024/03/29 02:31:02;;;;;;;2.30;1.00;;;10.70;99.90;;;;;;5026232;28;20486;-76
2024/03/29 02:33:28;;;;;;;2.92;0.75;;;10.60;99.90;;;;;;5025720;28;20032;-76
2024/03/29 02:35:54;;;;;;;5.80;0.82;;;10.70;99.90;;;;;;5025729;28;20033;-76
2024/03/29 02:38:20;;;;;;;3.20;1.15;;;10.80;99.90;;;;;;5025851;28;20021;-76
2024/03/29 02:40:45;;;;;;;2.15;0.50;;;10.90;99.90;;;;;;5025952;28;20415;-76
2024/03/29 02:43:11;;;;;;;2.78;0.73;;;10.90;99.90;;;;;;5025581;28;20072;-76
2024/03/29 02:45:37;;;;;;;2.38;0.70;;;10.90;99.90;;;;;;5024388;28;20087;-76
2024/03/29 02:48:03;;;;;;;4.10;0.82;;;10.90;99.90;;;;;;5025504;28;20045;-76
2024/03/29 02:50:28;;;;;;;3.22;0.63;;;11.00;99.90;;;;;;5024686;28;20033;-76
2024/03/29 02:52:54;;;;;;;3.97;0.63;;;11.00;99.90;;;;;;5024439;28;20071;-76
2024/03/29 02:55:20;;;;;;;3.13;0.60;;;11.00;99.90;;;;;;5025486;28;20386;-76
2024/03/29 02:57:45;;;;;;;2.80;0.65;;;11.00;99.90;;;;;;5024229;28;20025;-76
2024/03/29 03:00:12;;;;;;;1.65;0.70;;;11.00;99.90;;;;;;5025665;28;20482;-76
2024/03/29 03:02:41;;;;;;;6.50;0.85;;;11.10;99.90;;;;;;5023651;28;20037;-76
2024/03/29 03:05:07;;;;;;;1.75;0.50;;;11.10;99.90;;;;;;5024987;28;20029;-76
2024/03/29 03:13:03;;;;;;;1.40;0.55;;;11.00;99.90;;;;;;5024852;28;20398;-76
2024/03/29 03:15:29;;;;;;;1.85;0.40;;;11.10;99.90;;;;;;5024395;28;20037;-76
2024/03/29 03:17:55;;;;;;;3.22;0.30;;;11.00;99.90;;;;;;5024082;28;20030;-76
2024/03/29 03:20:22;;;;;;;4.00;0.50;;;11.10;99.90;;;;;;5024198;28;20036;-76
2024/03/29 03:22:51;;;;;;;1.70;0.50;;;11.10;99.90;;;;;;5022971;28;20118;-75
2024/03/29 03:25:16;;;;;;;2.65;0.47;;;11.10;99.90;;;;;;5025376;28;20018;-75
2024/03/29 03:27:42;;;;;;;1.42;0.70;;;11.10;99.90;;;;;;5024269;28;20041;-76
2024/03/29 03:30:08;;;;;;;3.53;0.90;;;11.00;99.90;;;;;;5023291;28;20045;-72
2024/03/29 03:32:34;;;;;;;1.95;0.70;;;10.90;99.90;;;;;;5024312;28;20025;-73
2024/03/29 03:35:00;;;;;;;3.60;0.70;;;10.80;99.90;;;;;;5024781;28;20032;-73
2024/03/29 03:37:25;;;;;;;3.72;0.77;;;10.80;99.90;;;;;;5023624;28;20437;-72
2024/03/29 03:39:51;;;;;;;3.42;0.90;;;10.70;99.90;;;;;;5025139;28;20386;-74
2024/03/29 03:42:17;;;;;;;3.17;0.50;;;10.70;99.90;;;;;;5024333;28;20398;-73
2024/03/29 03:44:42;;;;;;;2.58;0.80;;;10.70;99.90;;;;;;5023204;28;20019;-73
2024/03/29 03:47:08;;;;;;;3.80;1.20;;;10.70;99.90;;;;;;5023542;28;20029;-74
2024/03/29 03:49:34;;;;;;;2.42;0.93;;;10.60;99.90;;;;;;5024660;28;20037;-73
2024/03/29 03:51:59;;;;;;;1.95;0.63;;;10.60;99.90;;;;;;5023991;28;20017;-74
2024/03/29 03:54:25;;;;;;;1.42;0.60;;;10.60;99.90;;;;;;5024851;28;20640;-74
2024/03/29 03:56:51;;;;;;;2.88;0.65;;;10.50;99.90;;;;;;5021691;28;20828;-74
2024/03/29 03:59:16;;;;;;;2.33;0.90;;;10.50;99.90;;;;;;5023935;28;20485;-73
2024/03/29 04:01:42;;;;;;;1.77;0.63;;;10.50;99.90;;;;;;5024399;28;20029;-73
2024/03/29 04:04:08;;;;;;;3.05;0.70;;;10.60;99.90;;;;;;5024283;28;20029;-73
2024/03/29 04:06:34;;;;;;;3.45;0.95;;;10.60;99.90;;;;;;5024529;28;20513;-74
2024/03/29 04:09:00;;;;;;;3.70;0.77;;;10.60;99.90;;;;;;5025224;28;20033;-74
2024/03/29 04:11:27;;;;;;;1.88;0.82;;;10.60;99.90;;;;;;5024431;28;20037;-72
2024/03/29 04:13:52;;;;;;;2.15;0.73;;;10.70;99.90;;;;;;5022782;28;21517;-73
2024/03/29 04:16:18;;;;;;;2.80;0.90;;;10.50;99.90;;;;;;5023864;28;20478;-73
2024/03/29 04:18:43;;;;;;;3.88;1.02;;;10.40;99.90;;;;;;5025274;28;20022;-73
2024/03/29 04:21:09;;;;;;;2.30;0.98;;;10.50;99.90;;;;;;5023509;28;20041;-72
2024/03/29 04:23:36;;;;;;;4.00;1.13;;;10.40;99.90;;;;;;5025032;28;20455;-72
2024/03/29 04:26:02;;;;;;;2.90;0.98;;;10.30;99.90;;;;;;5023862;28;20059;-73
2024/03/29 04:28:27;;;;;;;3.63;0.68;;;10.40;99.90;;;;;;5023826;28;20030;-72
2024/03/29 04:30:57;;;;;;;3.17;0.80;;;10.40;99.90;;;;;;5026551;28;20021;-73
2024/03/29 04:33:23;;;;;;;2.65;0.70;;;10.40;99.90;;;;;;5028008;28;20483;-73
2024/03/29 04:35:56;;;;;;;2.70;0.75;;;10.40;99.90;;;;;;5027377;28;20036;-73
2024/03/29 04:38:22;;;;;;;2.65;1.15;;;10.30;99.90;;;;;;5028600;28;20025;-72
2024/03/29 04:40:52;;;;;;;5.03;1.33;;;10.30;99.90;;;;;;5028168;28;20029;-72
2024/03/29 04:43:19;;;;;;;1.38;0.80;;;10.30;99.90;;;;;;5026445;28;20388;-73
2024/03/29 04:45:45;;;;;;;2.88;0.98;;;10.20;99.90;;;;;;5026745;28;20502;-73
2024/03/29 04:48:11;;;;;;;3.22;0.80;;;10.20;99.90;;;;;;5028265;28;20397;-73
2024/03/29 04:50:37;;;;;;;1.73;0.75;;;10.40;99.90;;;;;;5028902;28;20025;-73
2024/03/29 04:53:03;;;;;;;2.35;0.75;;;10.40;99.90;;;;;;5027813;28;20025;-74
2024/03/29 04:55:29;;;;;;;2.45;0.90;;;10.50;99.90;;;;;;5027970;28;20393;-72
2024/03/29 04:57:55;;;;;;;2.22;0.75;;;10.50;99.90;;;;;;5028291;28;20029;-72
2024/03/29 05:00:21;;;;;;;2.70;1.00;;;10.50;99.90;;;;;;5027927;28;20033;-72
2024/03/29 05:02:46;;;;;;;2.38;1.33;;;10.40;99.90;;;;;;5027560;28;20036;-73
2024/03/29 05:05:12;;;;;;;3.17;1.13;;;10.50;99.90;;;;;;5026836;28;20104;-72
2024/03/29 05:07:38;;;;;;;1.65;0.80;;;10.50;99.90;;;;;;5024244;28;21352;-73
2024/03/29 05:10:07;;;;;;;1.95;1.10;;;10.60;99.90;;;;;;5029638;28;20471;-72
2024/03/29 05:12:33;;;;;;;2.92;1.23;;;10.60;99.90;;;;;;5034459;28;20049;-72
2024/03/29 05:14:59;;;;;;;2.13;1.10;;;10.60;99.90;;;;;;5034202;28;20064;-72
2024/03/29 05:17:26;;;;;;;3.60;1.67;;;10.60;99.90;;;;;;4999259;28;20030;-72
2024/03/29 05:19:53;;;;;;;1.90;0.90;;;10.60;99.90;;;;;;5026473;28;20041;-72
2024/03/29 05:22:19;;;;;;;2.95;1.42;;;10.70;99.90;;;;;;5026957;28;20104;-72
2024/03/29 05:24:44;;;;;;;3.42;1.00;;;10.60;99.90;;;;;;5026761;28;20120;-72
2024/03/29 05:27:11;;;;;;;5.13;0.90;;;10.60;99.90;;;;;;5027310;28;20530;-73
2024/03/29 05:29:37;;;;;;;1.30;0.95;;;10.40;99.90;;;;;;5026977;28;20018;-73
2024/03/29 05:32:06;;;;;;;3.30;1.00;;;10.20;99.90;;;;;;5025643;28;20020;-72
2024/03/29 05:34:32;;;;;;;1.30;0.70;;;10.30;99.90;;;;;;5026867;28;20064;-73
2024/03/29 05:36:58;;;;;;;1.83;0.90;;;10.30;99.90;;;;;;5024923;28;20057;-72
2024/03/29 05:39:24;;;;;;;3.20;0.70;;;10.40;99.90;;;;;;5025756;28;20194;-72
2024/03/29 05:41:49;;;;;;;3.00;0.85;;;10.50;99.90;;;;;;5026747;28;20087;-72
2024/03/29 05:44:15;;;;;;;3.03;1.00;;;10.40;99.90;;;;;;5027809;28;20029;-72
2024/03/29 05:46:41;;;;;;;1.00;0.63;;;10.50;99.90;;;;;;5025579;28;20033;-73
2024/03/29 05:49:07;;;;;;;5.93;0.80;;;10.50;99.90;;;;;;5027530;28;20087;-73
2024/03/29 05:51:34;;;;;;;1.65;1.13;;;10.60;99.90;;;;;;5026396;28;20057;-73
2024/03/29 05:54:00;;;;;;;2.40;0.80;;;10.50;99.90;;;;;;5028051;28;20029;-73
2024/03/29 05:56:26;;;;;;;3.03;1.08;;;10.40;99.90;;;;;;5027391;28;20034;-73
2024/03/29 05:58:52;;;;;;;5.95;1.33;;;10.50;99.90;;;;;;5026991;28;20105;-73
2024/03/29 06:01:17;;;;;;;6.20;1.00;;;10.50;99.90;;;;;;5026121;28;20037;-73
2024/03/29 06:03:43;;;;;;;4.85;1.10;;;10.50;99.90;;;;;;5026861;28;20053;-72
2024/03/29 06:06:17;;;;;;;4.88;0.90;;;10.50;99.90;;;;;;5026539;28;20063;-73
2024/03/29 06:08:43;;;;;;;2.63;1.23;;;10.40;99.90;;;;;;5025646;28;20099;-72
2024/03/29 06:11:09;;;;;;;6.88;1.55;;;10.30;99.90;;;;;;5026867;28;20045;-73
2024/03/29 06:19:13;;;;;;;5.78;1.90;;;10.50;99.90;;;;;;5024733;28;20041;-72
2024/03/29 06:21:39;;;;;;;3.53;1.00;;;10.60;99.90;;;;;;5025444;28;20037;-73
2024/03/29 06:24:12;;;;;;;7.15;1.40;;;10.40;99.90;;;;;;5025620;28;20070;-73
2024/03/29 06:26:38;;;;;;;3.40;1.63;;;10.50;99.90;;;;;;5026416;28;20029;-73
2024/03/29 06:29:04;;;;;;;2.92;1.15;;;10.50;99.90;;;;;;5026668;28;20025;-72
2024/03/29 06:31:30;;;;;;;5.35;1.67;;;10.50;99.90;;;;;;5024806;28;20442;-72
2024/03/29 06:33:59;;;;;;;3.30;1.60;;;10.50;99.90;;;;;;5025404;28;20055;-73
2024/03/29 06:36:25;;;;;;;4.40;2.08;;;10.50;99.90;;;;;;5026070;28;20053;-72
2024/03/29 06:38:51;;;;;;;5.30;1.83;;;10.40;99.90;;;;;;5025624;28;20045;-73
2024/03/29 06:41:17;;;;;;;4.65;1.35;;;10.40;99.90;;;;;;5026089;28;20033;-73
2024/03/29 06:43:45;;;;;;;5.53;1.50;;;10.40;99.90;;;;;;5024886;28;20056;-73
2024/03/29 06:46:12;;;;;;;6.15;1.70;;;10.40;99.90;;;;;;5024575;28;20025;-73
2024/03/29 06:48:38;;;;;;;4.82;1.42;;;10.40;99.90;;;;;;5022888;28;20037;-73
2024/03/29 06:51:04;;;;;;;2.40;1.40;;;10.40;99.90;;;;;;5025396;28;20101;-73
2024/03/29 06:53:30;;;;;;;3.33;1.55;;;10.40;99.90;;;;;;5025940;28;20105;-73
2024/03/29 06:55:56;;;;;;;6.35;1.73;;;10.40;99.90;;;;;;5026385;28;20092;-73
2024/03/29 06:58:29;;;;;;;9.32;1.90;;;10.50;99.90;;;;;;5024784;28;20534;-73
2024/03/29 07:00:54;;;;;;;5.28;1.38;;;10.50;99.90;;;;;;5024640;28;20042;-71
2024/03/29 07:03:20;;;;;;;3.88;1.73;;;10.60;99.90;;;;;;5025854;28;20467;-72
2024/03/29 07:05:46;;;;;;;6.03;1.70;;;10.60;99.90;;;;;;5025037;28;20075;-72
2024/03/29 07:08:12;;;;;;;2.33;1.40;;;10.50;99.90;;;;;;5023776;28;20360;-72
2024/03/29 07:10:38;;;;;;;3.08;1.95;;;10.50;99.90;;;;;;5022947;28;20024;-72
2024/03/29 07:13:04;;;;;;;5.45;2.40;;;10.50;99.90;;;;;;5026096;28;20041;-72
2024/03/29 07:15:30;;;;;;;5.65;2.28;;;10.50;99.90;;;;;;5022500;28;20367;-71
2024/03/29 07:17:58;;;;;;;5.13;2.20;;;10.70;99.90;;;;;;5023270;28;20026;-72
2024/03/29 07:20:23;;;;;;;3.80;2.45;;;10.70;99.90;;;;;;5023238;28;20445;-72
2024/03/29 07:22:49;;;;;;;5.78;2.33;;;10.80;99.90;;;;;;5023191;28;20041;-72
2024/03/29 07:25:15;;;;;;;4.63;3.10;;;10.90;99.90;;;;;;5024728;28;20029;-74
2024/03/29 07:27:41;;;;;;;2.97;2.28;;;10.90;99.90;;;;;;5024567;28;20391;-74
2024/03/29 07:30:10;;;;;;;5.28;2.60;;;10.80;99.90;;;;;;5022265;28;20379;-75
2024/03/29 07:32:37;;;;;;;4.85;2.72;;;10.90;99.90;;;;;;5022512;28;20593;-75
2024/03/29 07:35:03;;;;;;;10.35;3.55;;;11.00;99.90;;;;;;5022759;28;20017;-74
2024/03/29 07:37:28;;;;;;;5.78;3.35;;;11.00;99.90;;;;;;5024820;28;20029;-74
2024/03/29 07:39:54;;;;;;;5.15;2.97;;;11.10;99.90;;;;;;5025378;28;20370;-74
2024/03/29 07:42:20;;;;;;;3.47;2.25;;;11.10;99.90;;;;;;5024288;28;20060;-75
2024/03/29 07:44:45;;;;;;;7.43;2.63;;;11.20;99.90;;;;;;5025729;28;20474;-75
2024/03/29 07:47:14;;;;;;;3.72;2.25;;;11.30;99.90;;;;;;5025365;28;20390;-75
2024/03/29 07:49:40;;;;;;;3.92;1.75;;;11.40;99.90;;;;;;5023427;28;20104;-74
2024/03/29 07:52:08;;;;;;;4.45;1.50;;;11.50;99.90;;;;;;5023955;28;20528;-75
2024/03/29 07:54:34;;;;;;;3.92;1.67;;;11.50;99.90;;;;;;5023896;28;20034;-75
2024/03/29 07:57:01;;;;;;;4.03;1.83;;;11.60;99.90;;;;;;5024537;28;20041;-75
2024/03/29 07:59:27;;;;;;;3.63;1.48;;;11.60;99.90;;;;;;5024864;28;20017;-75
2024/03/29 08:01:54;;;;;;;3.53;1.52;;;11.70;99.90;;;;;;5024945;28;20087;-76
2024/03/29 08:04:20;;;;;;;4.82;2.13;;;11.70;99.90;;;;;;5023171;28;20552;-76
2024/03/29 08:06:46;;;;;;;3.85;1.67;;;11.70;99.90;;;;;;5023355;28;20372;-75
2024/03/29 08:09:13;;;;;;;3.25;1.88;;;11.80;99.90;;;;;;5024853;28;20501;-74
2024/03/29 08:11:40;;;;;;;2.65;1.50;;;11.80;99.90;;;;;;5024685;28;20589;-75
2024/03/29 08:14:06;;;;;;;5.75;1.85;;;11.80;99.90;;;;;;5025035;28;20013;-75
2024/03/29 08:16:32;;;;;;;4.47;1.73;;;11.80;99.90;;;;;;5024016;28;20033;-75
2024/03/29 08:18:58;;;;;;;6.40;2.13;;;11.80;99.90;;;;;;5024589;28;20031;-77
2024/03/29 08:21:27;;;;;;;5.38;1.40;;;11.90;99.90;;;;;;5023729;28;20175;-75
2024/03/29 08:23:54;;;;;;;5.25;1.40;;;12.00;99.90;;;;;;5024952;28;20018;-75
2024/03/29 08:26:21;;;;;;;3.97;1.80;;;12.00;99.90;;;;;;5023779;28;20116;-77
2024/03/29 08:28:46;;;;;;;3.78;1.60;;;11.90;99.90;;;;;;5024810;28;20028;-74
2024/03/29 08:31:12;;;;;;;4.13;1.52;;;11.90;99.90;;;;;;5024932;28;20026;-77
2024/03/29 08:33:46;;;;;;;6.00;2.08;;;11.90;99.90;;;;;;5024765;28;20044;-77
2024/03/29 08:36:12;;;;;;;3.25;1.40;;;12.00;99.90;;;;;;5026206;28;20034;-75
2024/03/29 08:38:42;;;;;;;3.65;1.90;;;12.00;99.90;;;;;;5028015;28;20434;-76
2024/03/29 08:41:08;;;;;;;3.75;1.48;;;12.00;99.90;;;;;;5023215;28;20061;-76
2024/03/29 08:43:34;;;;;;;4.18;1.60;;;12.00;99.90;;;;;;5025466;28;20026;-76
2024/03/29 08:46:00;;;;;;;6.13;2.33;;;12.10;99.90;;;;;;5024050;28;20026;-76
2024/03/29 08:48:27;;;;;;;3.97;2.05;;;12.00;99.90;;;;;;5024481;28;20085;-75
2024/03/29 08:50:53;;;;;;;1.92;1.58;;;12.20;99.90;;;;;;5024391;28;20029;-75
2024/03/29 08:53:21;;;;;;;4.38;1.70;;;12.20;99.90;;;;;;5024804;28;20390;-75
2024/03/29 08:55:48;;;;;;;4.80;2.10;;;12.20;99.90;;;;;;5024184;28;20033;-76
2024/03/29 08:58:14;;;;;;;5.38;2.03;;;12.20;99.90;;;;;;5022329;28;20026;-75
2024/03/29 09:00:40;;;;;;;3.92;1.52;;;12.20;99.90;;;;;;5023656;28;20529;-75
2024/03/29 09:03:05;;;;;;;3.00;1.77;;;12.30;99.90;;;;;;5024546;28;20029;-76
2024/03/29 09:05:31;;;;;;;3.95;1.75;;;12.30;99.90;;;;;;5024656;28;20049;-76
2024/03/29 09:07:57;;;;;;;3.72;1.73;;;12.40;99.90;;;;;;5022564;28;20036;-76
2024/03/29 09:10:26;;;;;;;12.52;6.20;;;12.40;99.90;;;;;;5021789;28;20033;-76
2024/03/29 09:12:53;;;;;;;4.28;2.20;;;12.50;99.90;;;;;;5024308;28;20029;-76
2024/03/29 09:15:19;;;;;;;6.95;2.33;;;12.50;99.90;;;;;;5022339;28;20021;-76
2024/03/29 09:17:46;;;;;;;13.85;5.28;;;12.70;99.90;;;;;;5025565;28;20014;-76
2024/03/29 09:20:12;;;;;;;7.00;3.35;;;12.80;99.90;;;;;;5025970;28;20036;-76
2024/03/29 09:22:38;;;;;;;13.32;6.00;;;12.90;99.90;;;;;;5027830;28;20032;-76
2024/03/29 09:25:05;;;;;;;11.80;5.45;;;13.00;99.90;;;;;;5027993;28;20021;-76
2024/03/29 09:27:35;;;;;;;4.50;2.15;;;13.10;99.90;;;;;;5027284;28;20034;-76
2024/03/29 09:30:01;;;;;;;4.10;1.80;;;13.20;99.90;;;;;;5027251;28;20021;-76
2024/03/29 09:32:27;;;;;;;4.00;1.98;;;13.10;99.90;;;;;;5027403;28;20108;-76
2024/03/29 09:34:52;;;;;;;3.60;1.95;;;13.20;99.90;;;;;;5027920;28;20389;-76
2024/03/29 09:37:19;;;;;;;2.72;1.75;;;13.30;99.90;;;;;;5027227;28;20032;-76
2024/03/29 09:39:45;;;;;;;4.80;1.90;;;13.40;99.90;;;;;;5027737;28;20378;-76
2024/03/29 09:42:15;;;;;;;3.83;2.08;;;13.60;99.90;;;;;;5026459;28;20037;-76
2024/03/29 09:44:44;;;;;;;3.00;2.13;;;13.60;99.90;;;;;;5026619;28;20053;-76
2024/03/29 09:47:11;;;;;;;2.67;1.20;;;13.80;99.90;;;;;;5026970;28;20052;-77
2024/03/29 09:49:38;;;;;;;2.92;1.58;;;13.90;99.90;;;;;;5027479;28;20036;-76
2024/03/29 09:52:04;;;;;;;2.28;1.17;;;13.90;99.90;;;;;;5025884;28;20486;-76
2024/03/29 09:54:30;;;;;;;1.88;1.40;;;14.10;99.90;;;;;;5027775;28;20022;-76
2024/03/29 09:56:58;;;;;;;3.53;1.35;;;14.20;99.90;;;;;;5026507;28;20026;-77
2024/03/29 09:59:26;;;;;;;2.47;1.63;;;14.30;99.90;;;;;;5025296;28;20060;-76
2024/03/29 10:01:54;;;;;;;4.30;1.30;;;14.50;99.90;;;;;;5026726;28;20037;-76
2024/03/29 10:04:21;;;;;;;2.80;1.27;;;14.60;99.90;;;;;;5025746;28;20587;-77
2024/03/29 10:06:49;;;;;;;1.75;1.02;;;14.80;99.90;;;;;;5025836;28;20014;-78
2024/03/29 10:09:19;;;;;;;6.18;1.67;;;14.80;99.90;;;;;;5026967;28;20076;-77
2024/03/29 10:11:45;;;;;;;1.48;0.93;;;15.00;99.90;;;;;;5026904;28;20040;-77
2024/03/29 10:14:11;;;;;;;1.23;1.13;;;15.20;99.90;;;;;;5026804;28;20013;-77
2024/03/29 10:16:37;;;;;;;3.58;1.30;;;15.00;99.90;;;;;;5026456;28;20356;-77
2024/03/29 10:19:04;;;;;;;1.52;1.10;;;15.00;99.90;;;;;;5026107;28;20025;-78
2024/03/29 10:21:30;;;;;;;2.55;1.23;;;15.00;99.90;;;;;;5024965;28;20439;-77
2024/03/29 10:23:56;;;;;;;2.42;1.02;;;15.10;99.90;;;;;;5026895;28;20072;-76
2024/03/29 10:26:22;;;;;;;3.38;0.93;;;15.10;99.90;;;;;;5025706;28;20041;-77
2024/03/29 10:28:49;;;;;;;2.03;0.90;;;15.00;99.90;;;;;;5025290;28;20025;-76
2024/03/29 10:31:15;;;;;;;1.85;1.02;;;15.00;99.90;;;;;;5027290;28;20033;-77
2024/03/29 10:33:43;;;;;;;2.70;0.90;;;15.00;99.90;;;;;;5026393;28;20021;-78
2024/03/29 10:36:11;;;;;;;3.25;1.27;;;15.00;99.90;;;;;;5026870;28;20451;-78
2024/03/29 10:38:38;;;;;;;2.25;0.82;;;15.10;99.90;;;;;;5025908;28;20022;-77
2024/03/29 10:41:06;;;;;;;1.50;0.60;;;15.30;99.90;;;;;;5025337;28;20044;-77
2024/03/29 10:43:33;;;;;;;1.83;0.60;;;15.50;99.90;;;;;;5024423;28;20036;-77
2024/03/29 10:46:05;;;;;;;1.48;0.68;;;15.70;99.90;;;;;;5024502;28;20115;-77
2024/03/29 10:48:36;;;;;;;0.50;0.50;;;15.80;99.90;;;;;;5026675;28;20037;-77
2024/03/29 10:51:02;;;;;;;0.70;0.50;;;16.00;99.90;;;;;;5026446;28;20051;-79
2024/03/29 10:53:30;;;;;;;1.08;0.40;;;16.20;99.90;;;;;;5024490;28;20025;-78
2024/03/29 10:56:00;;;;;;;1.55;0.55;;;15.90;99.90;;;;;;5024562;28;20483;-77
2024/03/29 10:58:30;;;;;;;0.65;0.40;;;15.70;99.90;;;;;;5025191;28;20025;-78
2024/03/29 11:01:01;;;;;;;1.95;0.30;;;15.50;99.90;;;;;;5024511;28;20483;-78
2024/03/29 11:03:40;;;;;;;1.10;0.40;;;15.30;99.90;;;;;;5024097;28;20049;-77
2024/03/29 11:06:07;;;;;;;0.93;0.60;;;15.10;99.90;;;;;;5026113;28;20024;-77
2024/03/29 11:08:38;;;;;;;0.90;0.20;;;15.00;99.90;;;;;;5023051;28;20025;-78
2024/03/29 11:11:05;;;;;;;0.65;0.35;;;15.10;99.90;;;;;;5025341;28;20045;-78
2024/03/29 11:13:47;;;;;;;1.52;0.45;;;15.40;99.90;;;;;;5025285;28;20044;-77
2024/03/29 11:16:15;;;;;;;0.70;0.30;;;15.40;99.90;;;;;;5024697;28;20029;-77
2024/03/29 11:18:42;;;;;;;0.98;0.47;;;15.50;99.90;;;;;;5025107;28;20105;-79
2024/03/29 11:21:10;;;;;;;1.42;0.30;;;15.40;99.90;;;;;;5025786;28;20061;-78
2024/03/29 11:23:36;;;;;;;1.48;0.40;;;15.50;99.90;;;;;;5025567;28;20717;-79
2024/03/29 11:26:03;;;;;;;0.98;0.25;;;15.60;99.90;;;;;;5025223;28;20106;-78
2024/03/29 11:28:34;;;;;;;3.08;0.60;;;15.70;99.90;;;;;;5025352;28;20029;-78
2024/03/29 11:31:05;;;;;;;5.78;0.90;;;15.70;99.90;;;;;;5024233;28;20079;-78
2024/03/29 11:33:44;;;;;;;2.90;0.50;;;15.70;99.90;;;;;;5025022;28;20417;-78
2024/03/29 11:36:14;;;;;;;2.70;0.40;;;15.80;99.90;;;;;;5024920;28;20021;-78
2024/03/29 11:38:40;;;;;;;1.48;0.68;;;15.70;99.90;;;;;;5024439;28;20067;-79
2024/03/29 11:41:11;;;;;;;3.47;0.82;;;15.60;99.90;;;;;;5024506;28;20029;-78
2024/03/29 11:43:38;;;;;;;2.03;0.70;;;15.80;99.90;;;;;;5025047;28;20032;-78
2024/03/29 11:46:08;;;;;;;1.05;0.75;;;15.80;99.90;;;;;;5025064;28;20025;-78
2024/03/29 11:48:35;;;;;;;0.63;0.50;;;16.00;99.90;;;;;;5024682;28;20494;-77
2024/03/29 11:51:03;;;;;;;0.28;0.20;;;16.10;99.90;;;;;;5025486;28;20425;-78
2024/03/29 11:53:29;;;;;;;2.67;0.65;;;16.20;99.90;;;;;;5025091;28;20018;-78
2024/03/29 11:55:58;;;;;;;1.65;0.50;;;16.20;99.90;;;;;;5024727;28;20018;-79
2024/03/29 11:58:26;;;;;;;0.40;0.40;;;16.20;99.90;;;;;;5020016;28;20026;-77
2024/03/29 12:00:53;;;;;;;1.75;0.40;;;16.30;99.90;;;;;;5015167;28;20116;-79
2024/03/29 12:03:21;;;;;;;1.45;0.47;;;16.30;99.90;;;;;;5023564;28;20022;-78
2024/03/29 12:05:48;;;;;;;2.30;0.57;;;16.20;99.90;;;;;;5015480;28;20028;-78
2024/03/29 12:08:15;;;;;;;1.40;0.55;;;16.30;99.90;;;;;;5016388;28;20026;-78
2024/03/29 12:10:41;;;;;;;1.83;0.52;;;16.70;99.90;;;;;;5025382;28;20025;-78
2024/03/29 12:13:07;;;;;;;3.70;0.50;;;16.90;99.90;;;;;;5023473;28;20164;-78
2024/03/29 12:15:33;;;;;;;0.43;0.30;;;17.00;99.90;;;;;;5021181;28;20036;-78
2024/03/29 12:18:02;;;;;;;1.73;0.65;;;17.20;99.90;;;;;;5022962;28;20032;-78
2024/03/29 12:20:38;;;;;;;2.33;0.52;;;17.10;99.90;;;;;;5025114;28;20029;-78
2024/03/29 12:23:09;;;;;;;2.05;0.50;;;17.00;99.90;;;;;;5023858;28;20026;-80
2024/03/29 12:25:36;;;;;;;1.00;0.60;;;16.80;99.90;;;;;;5024865;28;20017;-79
2024/03/29 12:28:03;;;;;;;1.35;0.75;;;16.70;99.90;;;;;;5023931;28;20033;-79
2024/03/29 12:30:30;;;;;;;1.05;0.40;;;16.60;99.90;;;;;;5025076;28;20014;-80
2024/03/29 12:33:07;;;;;;;0.50;0.50;;;16.40;99.90;;;;;;5023546;28;20036;-77
2024/03/29 12:35:34;;;;;;;1.30;0.50;;;16.50;99.90;;;;;;5019167;28;20127;-77
2024/03/29 12:38:04;;;;;;;4.90;0.63;;;16.60;99.90;;;;;;5021109;28;20551;-77
2024/03/29 12:40:38;;;;;;;4.35;0.60;;;16.60;99.90;;;;;;5023080;28;20078;-78
2024/03/29 12:43:05;;;;;;;2.72;0.93;;;16.70;99.90;;;;;;5023426;28;20068;-77
2024/03/29 12:45:32;;;;;;;2.17;0.70;;;16.70;99.90;;;;;;5021914;28;20064;-79
2024/03/29 12:47:57;;;;;;;1.45;0.50;;;16.70;99.90;;;;;;5024246;28;20038;-79
2024/03/29 12:50:28;;;;;;;2.97;0.60;;;16.60;99.90;;;;;;5023056;28;20022;-78
2024/03/29 12:53:01;;;;;;;2.65;0.82;;;16.60;99.90;;;;;;5028025;28;20083;-76